Observation data for Aspermont on 06/12/2019      Previous  Date       Current Mesonet Observations  Soil Data  Daily Summary Page  Observations in Plain Language
KASR 120500Z 16008KT 22/17 A2998 RMK A01 T02200173  RH  077%=      5-min Rain = 0
KASR 120505Z 16008KT 22/17 A2998 RMK A01 T02190173  RH  077%=      5-min Rain = 0
KASR 120510Z 16008G13KT 22/17 A2998 RMK A01 T02180173  RH  078%=      5-min Rain = 0
KASR 120515Z 17009KT 22/17 A2998 RMK A01 T02180173  RH  078%=      5-min Rain = 0
KASR 120520Z 17008KT 22/17 A2998 RMK A01 T02170173  RH  078%=      5-min Rain = 0
KASR 120525Z 17008KT 22/17 A2998 RMK A01 T02150173  RH  079%=      5-min Rain = 0
KASR 120530Z 17008KT 21/17 A2998 RMK A01 T02140173  RH  080%=      5-min Rain = 0
KASR 120535Z 16008KT 21/17 A2998 RMK A01 T02120173  RH  080%=      5-min Rain = 0
KASR 120540Z 17008KT 21/17 A2998 RMK A01 T02110173  RH  081%=      5-min Rain = 0
KASR 120545Z 17007KT 21/17 A2998 RMK A01 T02100173  RH  081%=      5-min Rain = 0
KASR 120550Z 17007KT 21/17 A2998 RMK A01 T02080172  RH  082%=      5-min Rain = 0
KASR 120555Z 17006KT 21/17 A2998 RMK A01 T02060172  RH  083%=      5-min Rain = 0
KASR 120600Z 18006KT 20/17 A2998 RMK A01 T02030172  RH  084%=      5-min Rain = 0
KASR 120605Z 17005KT 20/17 A2999 RMK A01 T02030172  RH  085%=      5-min Rain = 0
KASR 120610Z 18005KT 20/17 A2999 RMK A01 T02000172  RH  086%=      5-min Rain = 0
KASR 120615Z 18005KT 20/17 A2999 RMK A01 T01990172  RH  086%=      5-min Rain = 0
KASR 120620Z 17005KT 20/17 A2999 RMK A01 T01980172  RH  087%=      5-min Rain = 0
KASR 120625Z 17005KT 20/17 A2998 RMK A01 T01970172  RH  088%=      5-min Rain = 0
KASR 120630Z 17005KT 20/17 A2998 RMK A01 T01970172  RH  088%=      5-min Rain = 0
KASR 120635Z 16005KT 20/17 A2998 RMK A01 T01960172  RH  088%=      5-min Rain = 0
KASR 120640Z 17004KT 19/17 A2998 RMK A01 T01940172  RH  089%=      5-min Rain = 0
KASR 120645Z 17004KT 19/17 A2998 RMK A01 T01930172  RH  089%=      5-min Rain = 0
KASR 120650Z 16005KT 19/17 A2998 RMK A01 T01930171  RH  090%=      5-min Rain = 0
KASR 120655Z 16004KT 19/17 A2998 RMK A01 T01910171  RH  090%=      5-min Rain = 0
KASR 120700Z 16005KT 19/17 A2998 RMK A01 T01900171  RH  091%=      5-min Rain = 0
KASR 120705Z 16004KT 19/17 A2999 RMK A01 T01900170  RH  091%=      5-min Rain = 0
KASR 120710Z 17004KT 19/17 A2999 RMK A01 T01890170  RH  091%=      5-min Rain = 0
KASR 120715Z 17004KT 19/17 A2999 RMK A01 T01880170  RH  091%=      5-min Rain = 0
KASR 120720Z 17004KT 19/17 A2999 RMK A01 T01880170  RH  091%=      5-min Rain = 0
KASR 120725Z 17004KT 19/17 A2998 RMK A01 T01870170  RH  092%=      5-min Rain = 0
KASR 120730Z 17004KT 19/17 A2998 RMK A01 T01870169  RH  092%=      5-min Rain = 0
KASR 120735Z 17004KT 19/17 A2998 RMK A01 T01870169  RH  092%=      5-min Rain = 0
KASR 120740Z 17005KT 19/17 A2998 RMK A01 T01870169  RH  092%=      5-min Rain = 0
KASR 120745Z 17005KT 19/17 A2998 RMK A01 T01860169  RH  092%=      5-min Rain = 0
KASR 120750Z 17005KT 19/17 A2998 RMK A01 T01860169  RH  092%=      5-min Rain = 0
KASR 120755Z 16005KT 19/17 A2998 RMK A01 T01860169  RH  092%=      5-min Rain = 0
KASR 120800Z 17006KT 19/17 A2998 RMK A01 T01850169  RH  092%=      5-min Rain = 0
KASR 120805Z 17005KT 19/17 A2998 RMK A01 T01850168  RH  092%=      5-min Rain = 0
KASR 120810Z 17005KT 18/17 A2998 RMK A01 T01840168  RH  093%=      5-min Rain = 0
KASR 120815Z 17004KT 18/17 A2998 RMK A01 T01840168  RH  093%=      5-min Rain = 0
KASR 120820Z 17004KT 18/17 A2997 RMK A01 T01830168  RH  093%=      5-min Rain = 0
KASR 120825Z 17004KT 18/17 A2997 RMK A01 T01820168  RH  094%=      5-min Rain = 0
KASR 120830Z 17004KT 18/17 A2997 RMK A01 T01810167  RH  094%=      5-min Rain = 0
KASR 120835Z 18005KT 18/17 A2997 RMK A01 T01800167  RH  094%=      5-min Rain = 0
KASR 120840Z 18005KT 18/17 A2997 RMK A01 T01800167  RH  094%=      5-min Rain = 0
KASR 120845Z 18005KT 18/17 A2997 RMK A01 T01800168  RH  095%=      5-min Rain = 0
KASR 120850Z 18005KT 18/17 A2997 RMK A01 T01800167  RH  095%=      5-min Rain = 0
KASR 120855Z 18005KT 18/17 A2997 RMK A01 T01790167  RH  095%=      5-min Rain = 0
KASR 120900Z 18006KT 18/17 A2996 RMK A01 T01780167  RH  095%=      5-min Rain = 0
KASR 120905Z 18006KT 18/17 A2997 RMK A01 T01780168  RH  096%=      5-min Rain = 0
KASR 120910Z 19005KT 18/17 A2997 RMK A01 T01790168  RH  096%=      5-min Rain = 0
KASR 120915Z 19005KT 18/17 A2997 RMK A01 T01790168  RH  095%=      5-min Rain = 0
KASR 120920Z 18005KT 18/17 A2997 RMK A01 T01780167  RH  095%=      5-min Rain = 0
KASR 120925Z 18005KT 18/17 A2997 RMK A01 T01770167  RH  096%=      5-min Rain = 0
KASR 120930Z 18005KT 18/17 A2997 RMK A01 T01770168  RH  096%=      5-min Rain = 0
KASR 120935Z 19005KT 18/17 A2997 RMK A01 T01780169  RH  096%=      5-min Rain = 0
KASR 120940Z 19005KT 18/17 A2997 RMK A01 T01790169  RH  096%=      5-min Rain = 0
KASR 120945Z 18005KT 18/17 A2996 RMK A01 T01790169  RH  096%=      5-min Rain = 0
KASR 120950Z 18005KT 18/17 A2996 RMK A01 T01790169  RH  096%=      5-min Rain = 0
KASR 120955Z 20004KT 18/17 A2996 RMK A01 T01790169  RH  096%=      5-min Rain = 0
KASR 121000Z 20005KT 18/17 A2996 RMK A01 T01790170  RH  096%=      5-min Rain = 0
KASR 121005Z 19005KT 18/17 A2996 RMK A01 T01790170  RH  096%=      5-min Rain = 0
KASR 121010Z 20004KT 18/17 A2996 RMK A01 T01800171  RH  097%=      5-min Rain = 0
KASR 121015Z 20002KT 18/17 A2997 RMK A01 T01820172  RH  096%=      5-min Rain = 0
KASR 121020Z 20003KT 18/17 A2997 RMK A01 T01830172  RH  096%=      5-min Rain = 0
KASR 121025Z 20003KT 18/17 A2997 RMK A01 T01840173  RH  096%=      5-min Rain = 0
KASR 121030Z 33004G18KT 19/17 A2999 RMK A01 T01850174  RH  095%=      5-min Rain = 0
KASR 121035Z 36017G28KT 19/17 A3004 RMK A01 T01850173  RH  095%=      5-min Rain = 0
KASR 121040Z 02009G18KT 19/17 A3005 RMK A01 T01860174  RH  095%=      5-min Rain = 0
KASR 121045Z 03010KT 19/17 A3006 RMK A01 T01880174  RH  094%=      5-min Rain = 0
KASR 121050Z 04011G16KT 19/18 A3005 RMK A01 T01900176  RH  093%=      5-min Rain = 0
KASR 121055Z 05010KT 19/18 A3006 RMK A01 T01930176  RH  092%=      5-min Rain = 0
KASR 121100Z 05010KT 19/18 A3007 RMK A01 T01940177  RH  092%=      5-min Rain = 0
KASR 121105Z 05009KT 20/18 A3007 RMK A01 T01950176  RH  091%=      5-min Rain = 0
KASR 121110Z 04007KT 20/18 A3008 RMK A01 T01960176  RH  091%=      5-min Rain = 0
KASR 121115Z 05005KT 20/18 A3008 RMK A01 T01960177  RH  091%=      5-min Rain = 0
KASR 121120Z 06005KT 20/18 A3008 RMK A01 T01970177  RH  091%=      5-min Rain = 0
KASR 121125Z 08004KT 20/18 A3008 RMK A01 T01970177  RH  091%=      5-min Rain = 0
KASR 121130Z 09005KT 20/18 A3008 RMK A01 T01950176  RH  091%=      5-min Rain = 0
KASR 121135Z 09004KT 19/18 A3008 RMK A01 T01930176  RH  092%=      5-min Rain = 0
KASR 121140Z 12004KT 19/18 A3008 RMK A01 T01910175  RH  093%=      5-min Rain = 0
KASR 121145Z 13004KT 19/18 A3008 RMK A01 T01900175  RH  093%=      5-min Rain = 0
KASR 121150Z 13005KT 19/17 A3007 RMK A01 T01890174  RH  094%=      5-min Rain = 0
KASR 121155Z 14005KT 19/17 A3007 RMK A01 T01880174  RH  094%=      5-min Rain = 0
KASR 121200Z 14005KT 19/17 A3006 RMK A01 T01880174  RH  094%=      5-min Rain = 0
KASR 121205Z 14004KT 19/17 A3006 RMK A01 T01890174  RH  093%=      5-min Rain = 0
KASR 121210Z 14004KT 19/17 A3005 RMK A01 T01890174  RH  093%=      5-min Rain = 0
KASR 121215Z 14003KT 19/18 A3005 RMK A01 T01900175  RH  093%=      5-min Rain = 0
KASR 121220Z 15004KT 19/18 A3005 RMK A01 T01900175  RH  093%=      5-min Rain = 0
KASR 121225Z 16005KT 19/18 A3005 RMK A01 T01910177  RH  094%=      5-min Rain = 0
KASR 121230Z 14005KT 19/18 A3005 RMK A01 T01920177  RH  094%=      5-min Rain = 0
KASR 121235Z 15004KT 19/18 A3005 RMK A01 T01930178  RH  093%=      5-min Rain = 0
KASR 121240Z 15004KT 20/18 A3004 RMK A01 T01950179  RH  093%=      5-min Rain = 0
KASR 121245Z 17004KT 20/18 A3004 RMK A01 T01960179  RH  092%=      5-min Rain = 0
KASR 121250Z 22004KT 20/18 A3005 RMK A01 T01980180  RH  092%=      5-min Rain = 0
KASR 121255Z 24005KT 20/18 A3005 RMK A01 T01980181  RH  092%=      5-min Rain = 0
KASR 121300Z 24005KT 20/18 A3005 RMK A01 T01980181  RH  092%=      5-min Rain = 0
KASR 121305Z 24004KT 20/18 A3005 RMK A01 T02000181  RH  091%=      5-min Rain = 0
KASR 121310Z 23002KT 20/18 A3006 RMK A01 T02020182  RH  090%=      5-min Rain = 0
KASR 121315Z 33002KT 20/18 A3007 RMK A01 T02040183  RH  090%=      5-min Rain = 0
KASR 121320Z 03006KT 21/19 A3008 RMK A01 T02050186  RH  091%=      5-min Rain = 0
KASR 121325Z 06005KT 20/19 A3008 RMK A01 T02040185  RH  091%=      5-min Rain = 0
KASR 121330Z 35004KT 21/19 A3008 RMK A01 T02060185  RH  090%=      5-min Rain = 0
KASR 121335Z 35004KT 21/19 A3008 RMK A01 T02120187  RH  088%=      5-min Rain = 0
KASR 121340Z 02003KT 22/19 A3008 RMK A01 T02170187  RH  085%=      5-min Rain = 0
KASR 121345Z 35004KT 22/19 A3008 RMK A01 T02160185  RH  085%=      5-min Rain = 0
KASR 121350Z 01003KT 21/19 A3008 RMK A01 T02140186  RH  086%=      5-min Rain = 0
KASR 121355Z 02002KT 21/19 A3009 RMK A01 T02130186  RH  087%=      5-min Rain = 0
KASR 121400Z 02002KT 22/19 A3009 RMK A01 T02160188  RH  087%=      5-min Rain = 0
KASR 121405Z 03002KT 22/19 A3009 RMK A01 T02230189  RH  084%=      5-min Rain = 0
KASR 121410Z 34004KT 22/19 A3009 RMK A01 T02220189  RH  084%=      5-min Rain = 0
KASR 121415Z 02005KT 23/19 A301 RMK A01 T02260191  RH  083%=      5-min Rain = 0
KASR 121420Z 02006KT 23/19 A301 RMK A01 T02290190  RH  081%=      5-min Rain = 0
KASR 121425Z 03007KT 23/19 A3011 RMK A01 T02250188  RH  082%=      5-min Rain = 0
KASR 121430Z 03007KT 22/19 A3011 RMK A01 T02220187  RH  083%=      5-min Rain = 0
KASR 121435Z 01007KT 22/19 A3011 RMK A01 T02210185  RH  082%=      5-min Rain = 0
KASR 121440Z 03005KT 22/19 A3012 RMK A01 T02210187  RH  083%=      5-min Rain = 0
KASR 121445Z 06006KT 22/19 A3012 RMK A01 T02170187  RH  085%=      5-min Rain = 0
KASR 121450Z 07005KT 21/19 A3012 RMK A01 T02140187  RH  087%=      5-min Rain = 0
KASR 121455Z 07005KT 22/19 A3012 RMK A01 T02160189  RH  087%=      5-min Rain = 0
KASR 121500Z 09005KT 22/19 A3012 RMK A01 T02160188  RH  086%=      5-min Rain = 0
KASR 121505Z 07005KT 22/19 A3013 RMK A01 T02170187  RH  086%=      5-min Rain = 0
KASR 121510Z 06005KT 22/19 A3013 RMK A01 T02150188  RH  087%=      5-min Rain = 0
KASR 121515Z 04006KT 22/19 A3014 RMK A01 T02170190  RH  086%=      5-min Rain = 0
KASR 121520Z 05007KT 22/19 A3014 RMK A01 T02160189  RH  087%=      5-min Rain = 0
KASR 121525Z 05008KT 22/19 A3014 RMK A01 T02160188  RH  086%=      5-min Rain = 0
KASR 121530Z 04008KT 21/19 A3013 RMK A01 T02140187  RH  087%=      5-min Rain = 0
KASR 121535Z 04008G13KT 22/19 A3013 RMK A01 T02150187  RH  086%=      5-min Rain = 0
KASR 121540Z 04008G14KT 22/19 A3013 RMK A01 T02150186  RH  086%=      5-min Rain = 0
KASR 121545Z 04009G14KT 21/18 A3014 RMK A01 T02130184  RH  085%=      5-min Rain = 0
KASR 121550Z 03011G16KT 21/18 A3014 RMK A01 T02080181  RH  086%=      5-min Rain = 0
KASR 121555Z 03011KT 20/18 A3013 RMK A01 T02040180  RH  088%=      5-min Rain = 0
KASR 121600Z 03011G16KT 21/18 A3013 RMK A01 T02050180  RH  088%=      5-min Rain = 0
KASR 121605Z 03009G14KT 21/18 A3014 RMK A01 T02080182  RH  087%=      5-min Rain = 0
KASR 121610Z 03008G13KT 21/18 A3014 RMK A01 T02100181  RH  086%=      5-min Rain = 0
KASR 121615Z 04010KT 21/18 A3014 RMK A01 T02100180  RH  085%=      5-min Rain = 0
KASR 121620Z 03009KT 21/18 A3014 RMK A01 T02110181  RH  085%=      5-min Rain = 0
KASR 121625Z 04010G15KT 21/18 A3014 RMK A01 T02090179  RH  085%=      5-min Rain = 0
KASR 121630Z 04008KT 21/18 A3014 RMK A01 T02070179  RH  086%=      5-min Rain = 0
KASR 121635Z 03008KT 21/18 A3014 RMK A01 T02070180  RH  087%=      5-min Rain = 0
KASR 121640Z 02008KT 21/18 A3014 RMK A01 T02060180  RH  087%=      5-min Rain = 0
KASR 121645Z 01010G15KT 21/18 A3014 RMK A01 T02080179  RH  086%=      5-min Rain = 0
KASR 121650Z 01011KT 21/18 A3015 RMK A01 T02090179  RH  085%=      5-min Rain = 0
KASR 121655Z 36012G18KT 21/18 A3015 RMK A01 T02090178  RH  085%=      5-min Rain = 0
KASR 121700Z 01009KT 21/18 A3015 RMK A01 T02110180  RH  085%=      5-min Rain = 0
KASR 121705Z 02009KT 21/18 A3015 RMK A01 T02140180  RH  083%=      5-min Rain = 0
KASR 121710Z 01008G13KT 22/18 A3015 RMK A01 T02170183  RH  083%=      5-min Rain = 0
KASR 121715Z 01012KT 22/18 A3014 RMK A01 T02240181  RH  078%=      5-min Rain = 0
KASR 121720Z 02013KT 23/18 A3014 RMK A01 T02280178  RH  075%=      5-min Rain = 0
KASR 121725Z 01012G17KT 23/17 A3014 RMK A01 T02250174  RH  075%=      5-min Rain = 0
KASR 121730Z 01013G19KT 23/17 A3014 RMK A01 T02260172  RH  073%=      5-min Rain = 0
KASR 121735Z 01013KT 23/17 A3014 RMK A01 T02290170  RH  071%=      5-min Rain = 0
KASR 121740Z 02012G19KT 23/17 A3014 RMK A01 T02320171  RH  071%=      5-min Rain = 0
KASR 121745Z 01012G17KT 24/17 A3014 RMK A01 T02370173  RH  069%=      5-min Rain = 0
KASR 121750Z 01012KT 24/17 A3014 RMK A01 T02350172  RH  069%=      5-min Rain = 0
KASR 121755Z 02011KT 24/17 A3014 RMK A01 T02380174  RH  069%=      5-min Rain = 0
KASR 121800Z 02012G17KT 24/17 A3014 RMK A01 T02400174  RH  068%=      5-min Rain = 0
KASR 121805Z 02011G17KT 24/18 A3014 RMK A01 T02440176  RH  067%=      5-min Rain = 0
KASR 121810Z 02011KT 24/18 A3014 RMK A01 T02430175  RH  067%=      5-min Rain = 0
KASR 121815Z 02010G17KT 25/18 A3013 RMK A01 T02480178  RH  067%=      5-min Rain = 0
KASR 121820Z 02010G17KT 25/17 A3013 RMK A01 T02470174  RH  066%=      5-min Rain = 0
KASR 121825Z 01010G16KT 25/18 A3013 RMK A01 T02490176  RH  065%=      5-min Rain = 0
KASR 121830Z 01010G15KT 25/18 A3013 RMK A01 T02520176  RH  064%=      5-min Rain = 0
KASR 121835Z 02010G16KT 26/18 A3013 RMK A01 T02550178  RH  064%=      5-min Rain = 0
KASR 121840Z 01009G14KT 26/18 A3012 RMK A01 T02580180  RH  063%=      5-min Rain = 0
KASR 121845Z 35012G18KT 26/18 A3012 RMK A01 T02590179  RH  063%=      5-min Rain = 0
KASR 121850Z 35011G16KT 26/18 A3012 RMK A01 T02580179  RH  063%=      5-min Rain = 0
KASR 121855Z 01010G16KT 26/18 A3012 RMK A01 T02610178  RH  062%=      5-min Rain = 0
KASR 121900Z 01011G17KT 26/17 A3012 RMK A01 T02600174  RH  060%=      5-min Rain = 0
KASR 121905Z 35013G18KT 27/17 A3012 RMK A01 T02650172  RH  058%=      5-min Rain = 0
KASR 121910Z 00010KT 27/17 A3012 RMK A01 T02660171  RH  057%=      5-min Rain = 0
KASR 121915Z 01011KT 27/16 A3012 RMK A01 T02650162  RH  054%=      5-min Rain = 0
KASR 121920Z 01010G15KT 27/16 A3012 RMK A01 T02670164  RH  054%=      5-min Rain = 0
KASR 121925Z 36013G18KT 27/15 A3012 RMK A01 T02670151  RH  050%=      5-min Rain = 0
KASR 121930Z 35010KT 26/15 A3011 RMK A01 T02620154  RH  053%=      5-min Rain = 0
KASR 121935Z 02012G18KT 27/14 A3011 RMK A01 T02660144  RH  048%=      5-min Rain = 0
KASR 121940Z 01012G18KT 27/14 A3011 RMK A01 T02660135  RH  046%=      5-min Rain = 0
KASR 121945Z 01013G18KT 27/13 A3011 RMK A01 T02680129  RH  043%=      5-min Rain = 0
KASR 121950Z 01011G17KT 27/14 A3011 RMK A01 T02680136  RH  045%=      5-min Rain = 0
KASR 121955Z 02011G16KT 27/14 A3011 RMK A01 T02680139  RH  046%=      5-min Rain = 0
KASR 122000Z 01011G16KT 27/14 A3011 RMK A01 T02670139  RH  046%=      5-min Rain = 0
KASR 122005Z 00011G16KT 27/14 A3011 RMK A01 T02730137  RH  044%=      5-min Rain = 0
KASR 122010Z 01011G16KT 27/14 A3011 RMK A01 T02710139  RH  045%=      5-min Rain = 0
KASR 122015Z 01010G15KT 27/15 A301 RMK A01 T02740151  RH  048%=      5-min Rain = 0
KASR 122020Z 01009KT 27/16 A301 RMK A01 T02730155  RH  050%=      5-min Rain = 0
KASR 122025Z 35011G16KT 27/15 A301 RMK A01 T02700150  RH  049%=      5-min Rain = 0
KASR 122030Z 00011G16KT 27/14 A301 RMK A01 T02670139  RH  046%=      5-min Rain = 0
KASR 122035Z 35011KT 27/14 ANAN RMK A01 T02650143  RH  048%=      5-min Rain = 0
KASR 122040Z 01010KT 27/14 A301 RMK A01 T02710143  RH  046%=      5-min Rain = 0
KASR 122045Z 00011G16KT 27/14 A301 RMK A01 T02700139  RH  045%=      5-min Rain = 0
KASR 122050Z 02008G14KT 27/14 A301 RMK A01 T02680139  RH  046%=      5-min Rain = 0
KASR 122055Z 35011G16KT 27/14 A301 RMK A01 T02690142  RH  047%=      5-min Rain = 0
KASR 122100Z 00013G18KT 27/14 A3009 RMK A01 T02730144  RH  046%=      5-min Rain = 0
KASR 122105Z 35011KT 27/15 A301 RMK A01 T02720147  RH  047%=      5-min Rain = 0
KASR 122110Z 00013G18KT 27/15 A3009 RMK A01 T02730145  RH  046%=      5-min Rain = 0
KASR 122115Z 36011G16KT 27/14 A301 RMK A01 T02710138  RH  045%=      5-min Rain = 0
KASR 122120Z 02012G17KT 27/13 A3009 RMK A01 T02710133  RH  044%=      5-min Rain = 0
KASR 122125Z 02012KT 27/13 A301 RMK A01 T02680127  RH  043%=      5-min Rain = 0
KASR 122130Z 02012G18KT 27/12 A301 RMK A01 T02660119  RH  041%=      5-min Rain = 0
KASR 122135Z 02011G16KT 27/12 A3009 RMK A01 T02690122  RH  041%=      5-min Rain = 0
KASR 122140Z 03012G18KT 27/12 A3009 RMK A01 T02650115  RH  040%=      5-min Rain = 0
KASR 122145Z 02011KT 26/12 A301 RMK A01 T02640117  RH  041%=      5-min Rain = 0
KASR 122150Z 02009KT 27/13 A3009 RMK A01 T02690127  RH  042%=      5-min Rain = 0
KASR 122155Z 02010KT 27/13 A3009 RMK A01 T02670128  RH  043%=      5-min Rain = 0
KASR 122200Z 01009KT 27/12 A3009 RMK A01 T02650124  RH  043%=      5-min Rain = 0
KASR 122205Z 01007G12KT 27/13 A3009 RMK A01 T02710129  RH  042%=      5-min Rain = 0
KASR 122210Z 01008KT 27/13 A3009 RMK A01 T02670127  RH  042%=      5-min Rain = 0
KASR 122215Z 01006KT 26/13 A3009 RMK A01 T02620127  RH  044%=      5-min Rain = 0
KASR 122220Z 01005KT 26/13 A3009 RMK A01 T02610125  RH  043%=      5-min Rain = 0
KASR 122225Z 01005KT 26/13 A3009 RMK A01 T02620134  RH  046%=      5-min Rain = 0
KASR 122230Z 02005KT 26/13 A3008 RMK A01 T02600133  RH  046%=      5-min Rain = 0
KASR 122235Z 02005KT 26/14 A3009 RMK A01 T02590135  RH  047%=      5-min Rain = 0
KASR 122240Z 04004KT 26/14 A3009 RMK A01 T02570135  RH  048%=      5-min Rain = 0
KASR 122245Z 05004KT 26/13 A3009 RMK A01 T02570132  RH  047%=      5-min Rain = 0
KASR 122250Z 04003KT 26/14 A3008 RMK A01 T02570138  RH  049%=      5-min Rain = 0
KASR 122255Z 04003KT 26/14 A3008 RMK A01 T02570144  RH  051%=      5-min Rain = 0
KASR 122300Z 03002KT 26/15 A3008 RMK A01 T02570150  RH  053%=      5-min Rain = 0
KASR 122305Z 03004KT 26/15 A3008 RMK A01 T02550147  RH  052%=      5-min Rain = 0
KASR 122310Z 03006KT 25/14 A3008 RMK A01 T02540140  RH  050%=      5-min Rain = 0
KASR 122315Z 02006G11KT 26/14 A3008 RMK A01 T02570139  RH  049%=      5-min Rain = 0
KASR 122320Z 03008KT 27/13 A3008 RMK A01 T02670134  RH  045%=      5-min Rain = 0
KASR 122325Z 03008KT 27/14 A3008 RMK A01 T02710135  RH  044%=      5-min Rain = 0
KASR 122330Z 02008KT 27/14 A3008 RMK A01 T02710136  RH  044%=      5-min Rain = 0
KASR 122335Z 02007G13KT 27/14 A3008 RMK A01 T02720135  RH  044%=      5-min Rain = 0
KASR 122340Z 04009KT 27/13 A3008 RMK A01 T02710129  RH  042%=      5-min Rain = 0
KASR 122345Z 03008G14KT 27/13 A3008 RMK A01 T02700131  RH  043%=      5-min Rain = 0
KASR 122350Z 03008KT 27/13 A3008 RMK A01 T02680131  RH  044%=      5-min Rain = 0
KASR 122355Z 03008KT 27/13 A3008 RMK A01 T02660131  RH  044%=      5-min Rain = 0
KASR 130000Z 03007KT 27/13 A3008 RMK A01 T02660129  RH  043%=      5-min Rain = 0
KASR 130005Z 03008KT 27/13 A3008 RMK A01 T02650129  RH  044%=      5-min Rain = 0
KASR 130010Z 03005G10KT 27/13 A3008 RMK A01 T02660134  RH  045%=      5-min Rain = 0
KASR 130015Z 03007KT 27/13 A3008 RMK A01 T02650129  RH  044%=      5-min Rain = 0
KASR 130020Z 04008KT 26/13 A3008 RMK A01 T02640126  RH  043%=      5-min Rain = 0
KASR 130025Z 05007KT 26/13 A3009 RMK A01 T02620129  RH  045%=      5-min Rain = 0
KASR 130030Z 05007KT 26/13 A3009 RMK A01 T02610131  RH  045%=      5-min Rain = 0
KASR 130035Z 05007KT 26/13 A3009 RMK A01 T02600129  RH  045%=      5-min Rain = 0
KASR 130040Z 04006KT 26/13 A3009 RMK A01 T02590131  RH  046%=      5-min Rain = 0
KASR 130045Z 05006KT 26/13 A3009 RMK A01 T02570130  RH  046%=      5-min Rain = 0
KASR 130050Z 05006KT 26/13 A3009 RMK A01 T02560127  RH  046%=      5-min Rain = 0
KASR 130055Z 04006KT 25/13 A3009 RMK A01 T02540128  RH  047%=      5-min Rain = 0
KASR 130100Z 05006KT 25/13 A3009 RMK A01 T02520129  RH  047%=      5-min Rain = 0
KASR 130105Z 05005KT 25/13 A3009 RMK A01 T02500131  RH  048%=      5-min Rain = 0
KASR 130110Z 05005KT 25/13 A3009 RMK A01 T02480132  RH  050%=      5-min Rain = 0
KASR 130115Z 05005KT 25/13 A301 RMK A01 T02450133  RH  051%=      5-min Rain = 0
KASR 130120Z 05005KT 24/13 A301 RMK A01 T02430133  RH  051%=      5-min Rain = 0
KASR 130125Z 05005KT 24/13 A301 RMK A01 T02400133  RH  052%=      5-min Rain = 0
KASR 130130Z 06004KT 24/13 A301 RMK A01 T02370134  RH  054%=      5-min Rain = 0
KASR 130135Z 06004KT 23/14 A301 RMK A01 T02330135  RH  055%=      5-min Rain = 0
KASR 130140Z 07004KT 23/14 A301 RMK A01 T02300135  RH  056%=      5-min Rain = 0
KASR 130145Z 08003KT 23/14 A301 RMK A01 T02260136  RH  058%=      5-min Rain = 0
KASR 130150Z 08003KT 22/14 A3011 RMK A01 T02220136  RH  059%=      5-min Rain = 0
KASR 130155Z 09003KT 22/14 A3011 RMK A01 T02170137  RH  061%=      5-min Rain = 0
KASR 130200Z 09003KT 21/14 A3011 RMK A01 T02120141  RH  065%=      5-min Rain = 0
KASR 130205Z 09004KT 20/14 A3011 RMK A01 T02040143  RH  069%=      5-min Rain = 0
KASR 130210Z 09003KT 20/14 A3011 RMK A01 T02010141  RH  070%=      5-min Rain = 0
KASR 130215Z 10003KT 20/14 A3011 RMK A01 T01980141  RH  071%=      5-min Rain = 0
KASR 130220Z 10004KT 20/14 A3011 RMK A01 T01970138  RH  070%=      5-min Rain = 0
KASR 130225Z 10004KT 20/14 A3012 RMK A01 T01980138  RH  069%=      5-min Rain = 0
KASR 130230Z 09005KT 20/14 A3012 RMK A01 T01970138  RH  070%=      5-min Rain = 0
KASR 130235Z 09004KT 20/13 A3012 RMK A01 T01960134  RH  069%=      5-min Rain = 0
KASR 130240Z 09005KT 20/13 A3012 RMK A01 T01970134  RH  069%=      5-min Rain = 0
KASR 130245Z 09005KT 20/13 A3012 RMK A01 T01970134  RH  068%=      5-min Rain = 0
KASR 130250Z 09005KT 20/13 A3012 RMK A01 T01950133  RH  069%=      5-min Rain = 0
KASR 130255Z 10005KT 19/13 A3012 RMK A01 T01940133  RH  069%=      5-min Rain = 0
KASR 130300Z 11005KT 19/13 A3012 RMK A01 T01930133  RH  069%=      5-min Rain = 0
KASR 130305Z 10006KT 19/13 A3012 RMK A01 T01930131  RH  069%=      5-min Rain = 0
KASR 130310Z 10004KT 20/13 A3013 RMK A01 T01950131  RH  068%=      5-min Rain = 0
KASR 130315Z 11005KT 19/13 A3013 RMK A01 T01930131  RH  068%=      5-min Rain = 0
KASR 130320Z 11005KT 19/13 A3013 RMK A01 T01890132  RH  071%=      5-min Rain = 0
KASR 130325Z 11005KT 18/14 A3013 RMK A01 T01830135  RH  075%=      5-min Rain = 0
KASR 130330Z 11005KT 18/13 A3014 RMK A01 T01780133  RH  076%=      5-min Rain = 0
KASR 130335Z 11004KT 17/14 A3014 RMK A01 T01740137  RH  080%=      5-min Rain = 0
KASR 130340Z 11005KT 17/14 A3014 RMK A01 T01700137  RH  083%=      5-min Rain = 0
KASR 130345Z 11006KT 17/13 A3014 RMK A01 T01740133  RH  078%=      5-min Rain = 0
KASR 130350Z 11005KT 18/13 A3014 RMK A01 T01800133  RH  076%=      5-min Rain = 0
KASR 130355Z 11005KT 18/13 A3014 RMK A01 T01820133  RH  074%=      5-min Rain = 0
KASR 130400Z 11005KT 18/13 A3014 RMK A01 T01840133  RH  073%=      5-min Rain = 0
KASR 130405Z 11005KT 18/13 A3014 RMK A01 T01840134  RH  074%=      5-min Rain = 0
KASR 130410Z 12005KT 18/13 A3014 RMK A01 T01810134  RH  076%=      5-min Rain = 0
KASR 130415Z 12005KT 18/13 A3014 RMK A01 T01800134  RH  076%=      5-min Rain = 0
KASR 130420Z 12005KT 18/14 A3015 RMK A01 T01790136  RH  077%=      5-min Rain = 0
KASR 130425Z 13005KT 18/14 A3015 RMK A01 T01770137  RH  079%=      5-min Rain = 0
KASR 130430Z 12005KT 17/13 A3014 RMK A01 T01740134  RH  079%=      5-min Rain = 0
KASR 130435Z 11005KT 17/13 A3014 RMK A01 T01740134  RH  079%=      5-min Rain = 0
KASR 130440Z 11005KT 17/14 A3014 RMK A01 T01730135  RH  080%=      5-min Rain = 0
KASR 130445Z 12005KT 17/14 A3014 RMK A01 T01730136  RH  080%=      5-min Rain = 0
KASR 130450Z 12004KT 17/14 A3014 RMK A01 T01710136  RH  081%=      5-min Rain = 0
KASR 130455Z 13003KT 17/14 A3015 RMK A01 T01700137  RH  082%=      5-min Rain = 0

Page generated in 0.0158 seconds.